Time;durP1;ratioP1;P1;durP2;ratioP2;P2;SDS_P1;SDS_P2;PMS_P1;PMS_P2;Temp;Humidity;BMP_temperature;BMP_pressure;BME280_temperature;BME280_humidity;BME280_pressure;Samples;Min_cycle;Max_cycle;Signal;HPM_P1;HPM_P2
2023/08/08 00:06:48;;;;;;;0.30;0.30;;;;;;;;;;20862143;28;20194;-76
2023/08/08 00:16:50;;;;;;;0.43;0.30;;;;;;;;;;20875795;28;20214;-76
2023/08/08 00:26:52;;;;;;;0.30;0.30;;;;;;;;;;20891174;28;20567;-76
2023/08/08 00:36:54;;;;;;;0.50;0.40;;;;;;;;;;20870293;28;20230;-76
2023/08/08 00:46:56;;;;;;;0.50;0.40;;;;;;;;;;20841487;28;20236;-76
2023/08/08 00:56:58;;;;;;;0.40;0.40;;;;;;;;;;20829855;28;20647;-76
2023/08/08 01:07:09;;;;;;;0.57;0.40;;;;;;;;;;20857666;28;20207;-75
2023/08/08 01:17:12;;;;;;;1.30;0.60;;;;;;;;;;20860727;28;20225;-76
2023/08/08 01:27:14;;;;;;;0.90;0.43;;;;;;;;;;20873894;28;20222;-76
2023/08/08 01:37:16;;;;;;;2.00;0.77;;;;;;;;;;20846682;28;20767;-76
2023/08/08 01:47:18;;;;;;;0.60;0.40;;;;;;;;;;20851240;28;20217;-76
2023/08/08 01:57:20;;;;;;;2.13;0.30;;;;;;;;;;20923117;22;20647;-75
2023/08/08 02:07:21;;;;;;;0.80;0.40;;;;;;;;;;20938072;28;20236;-75
2023/08/08 02:17:23;;;;;;;1.73;0.70;;;;;;;;;;20934342;28;20298;-76
2023/08/08 02:27:26;;;;;;;0.50;0.40;;;;;;;;;;20917414;28;20217;-75
2023/08/08 02:37:28;;;;;;;0.90;0.50;;;;;;;;;;20908885;28;20222;-75
2023/08/08 02:47:30;;;;;;;0.30;0.30;;;;;;;;;;20932861;28;20271;-75
2023/08/08 02:57:32;;;;;;;0.37;0.30;;;;;;;;;;20949068;28;20232;-76
2023/08/08 03:07:34;;;;;;;0.47;0.40;;;;;;;;;;20916247;28;20275;-74
2023/08/08 03:17:36;;;;;;;0.87;0.40;;;;;;;;;;20915892;28;20214;-75
2023/08/08 03:27:38;;;;;;;0.50;0.30;;;15.90;99.90;;;;;;20915708;28;20679;-75
2023/08/08 03:37:41;;;;;;;2.10;0.60;;;;;;;;;;20943560;28;20637;-75
2023/08/08 03:47:43;;;;;;;0.70;0.40;;;;;;;;;;20945441;28;20306;-75
2023/08/08 03:57:45;;;;;;;0.63;0.43;;;;;;;;;;20944660;28;20824;-75
2023/08/08 04:07:48;;;;;;;0.70;0.57;;;;;;;;;;20960775;28;20680;-75
2023/08/08 04:17:50;;;;;;;1.60;0.40;;;;;;;;;;20959448;28;20228;-77
2023/08/08 04:27:51;;;;;;;0.60;0.40;;;;;;;;;;20932015;28;20266;-77
2023/08/08 04:37:54;;;;;;;0.80;0.50;;;;;;;;;;20948460;28;20291;-77
2023/08/08 04:47:56;;;;;;;0.83;0.50;;;;;;;;;;20927077;28;20222;-76
2023/08/08 04:57:58;;;;;;;1.73;0.50;;;;;;;;;;20923793;28;20225;-77
2023/08/08 05:08:00;;;;;;;0.47;0.40;;;;;;;;;;20925327;28;20213;-77
2023/08/08 05:18:02;;;;;;;2.10;0.57;;;;;;;;;;20954674;28;20282;-77
2023/08/08 05:28:04;;;;;;;1.53;0.57;;;;;;;;;;20921202;28;20221;-77
2023/08/08 05:38:06;;;;;;;1.27;0.60;;;;;;;;;;20939405;28;20225;-77
2023/08/08 05:48:11;;;;;;;0.40;0.40;;;;;;;;;;20927556;28;20236;-76
2023/08/08 05:58:13;;;;;;;1.20;0.70;;;;;;;;;;20905466;28;20278;-77
2023/08/08 06:08:16;;;;;;;0.37;0.37;;;;;;;;;;20935054;28;20270;-76
2023/08/08 06:18:18;;;;;;;0.97;0.57;;;;;;;;;;20925759;28;20275;-76
2023/08/08 06:28:20;;;;;;;1.87;0.50;;;;;;;;;;20934672;28;20213;-76
2023/08/08 06:38:22;;;;;;;2.07;0.40;;;;;;;;;;20923662;28;20225;-76
2023/08/08 06:48:25;;;;;;;0.53;0.50;;;;;;;;;;20952758;28;20551;-76
2023/08/08 06:58:26;;;;;;;0.70;0.50;;;;;;;;;;20949482;28;20217;-76
2023/08/08 07:08:29;;;;;;;1.80;0.50;;;;;;;;;;20948733;28;20693;-76
2023/08/08 07:18:31;;;;;;;0.50;0.50;;;;;;;;;;20917893;28;20291;-76
2023/08/08 07:28:33;;;;;;;0.90;0.50;;;;;;;;;;20920465;28;20209;-76
2023/08/08 07:38:36;;;;;;;0.47;0.33;;;;;;;;;;20964004;28;20217;-76
2023/08/08 07:48:38;;;;;;;0.50;0.30;;;;;;;;;;20948224;28;20596;-77
2023/08/08 07:58:41;;;;;;;0.60;0.40;;;;;;;;;;20986598;22;20237;-76
2023/08/08 08:08:43;;;;;;;0.43;0.30;;;;;;;;;;20960532;28;20271;-74
2023/08/08 08:18:47;;;;;;;0.67;0.43;;;;;;;;;;20948553;28;20229;-74
2023/08/08 08:28:49;;;;;;;1.80;0.30;;;;;;;;;;20951468;28;20217;-74
2023/08/08 08:38:51;;;;;;;0.60;0.37;;;;;;;;;;20942509;28;20229;-76
2023/08/08 08:48:56;;;;;;;3.73;0.50;;;19.00;99.90;;;;;;20937637;28;20275;-75
2023/08/08 08:58:58;;;;;;;0.63;0.57;;;;;;;;;;20951260;28;20286;-75
2023/08/08 09:09:00;;;;;;;0.67;0.40;;;;;;;;;;20934264;28;20221;-75
2023/08/08 09:19:03;;;;;;;0.57;0.40;;;;;;;;;;20943340;28;20230;-76
2023/08/08 09:29:05;;;;;;;2.00;0.50;;;;;;;;;;20926281;28;20213;-75
2023/08/08 09:39:07;;;;;;;0.40;0.30;;;;;;;;;;20929254;28;20257;-75
2023/08/08 09:49:13;;;;;;;0.77;0.40;;;;;;;;;;20990631;28;20306;-75
2023/08/08 09:59:15;;;;;;;0.93;0.40;;;;;;;;;;20952365;28;20624;-76
2023/08/08 10:09:18;;;;;;;0.87;0.40;;;;;;;;;;20968669;28;20217;-76
2023/08/08 10:19:22;;;;;;;0.57;0.40;;;;;;;;;;20944153;28;20224;-76
2023/08/08 10:29:25;;;;;;;2.07;0.40;;;;;;;;;;20935585;28;20219;-75
2023/08/08 10:39:27;;;;;;;0.30;0.30;;;;;;;;;;20908201;28;20939;-74
2023/08/08 10:49:29;;;;;;;1.80;0.60;;;;;;;;;;20956806;28;20246;-76
2023/08/08 10:59:39;;;;;;;3.77;0.70;;;;;;;;;;20973105;28;20228;-75
2023/08/08 11:09:40;;;;;;;2.77;0.40;;;;;;;;;;20950849;28;20209;-76
2023/08/08 11:19:42;;;;;;;0.73;0.40;;;;;;;;;;20930217;28;20876;-75
2023/08/08 11:29:51;;;;;;;0.60;0.30;;;;;;;;;;20929921;28;20681;-76
2023/08/08 11:39:52;;;;;;;7.83;1.00;;;;;;;;;;20930434;28;20228;-75
2023/08/08 11:49:54;;;;;;;1.63;0.50;;;;;;;;;;20937400;28;20207;-75
2023/08/08 11:59:57;;;;;;;3.60;0.83;;;22.90;99.90;;;;;;20960294;28;20288;-76
2023/08/08 12:09:59;;;;;;;0.82;0.40;;;;;;;;;;20943038;28;20219;-76
2023/08/08 12:20:03;;;;;;;1.50;0.40;;;22.80;99.90;;;;;;20958653;28;20224;-76
2023/08/08 12:30:06;;;;;;;0.70;0.30;;;23.10;99.90;;;;;;20928722;28;20215;-76
2023/08/08 12:40:09;;;;;;;0.53;0.30;;;;;;;;;;20912308;28;20672;-76
2023/08/08 12:50:11;;;;;;;0.45;0.30;;;;;;;;;;20927115;28;20249;-75
2023/08/08 13:00:14;;;;;;;0.50;0.30;;;;;;;;;;20939782;28;20297;-75
2023/08/08 13:10:16;;;;;;;4.18;1.20;;;;;;;;;;20908857;28;20275;-75
2023/08/08 13:20:17;;;;;;;0.98;0.45;;;;;;;;;;20937418;28;20228;-76
2023/08/08 13:30:21;;;;;;;0.73;0.30;;;;;;;;;;20937165;28;20207;-76
2023/08/08 13:40:23;;;;;;;0.40;0.32;;;;;;;;;;20926758;28;20575;-77
2023/08/08 13:50:25;;;;;;;1.38;0.40;;;;;;;;;;20935630;28;20606;-76
2023/08/08 14:00:27;;;;;;;1.25;0.50;;;;;;;;;;20780739;23;20273;-73
2023/08/08 14:10:29;;;;;;;0.95;0.55;;;;;;;;;;20770807;28;20221;-74
2023/08/08 14:20:31;;;;;;;1.67;0.40;;;;;;;;;;20769331;28;20220;-74
2023/08/08 14:30:33;;;;;;;0.65;0.30;;;;;;;;;;20770166;28;20211;-74
2023/08/08 14:40:35;;;;;;;0.77;0.43;;;;;;;;;;20776221;28;20269;-74
2023/08/08 14:50:37;;;;;;;2.25;0.50;;;21.40;99.90;;;;;;20768954;28;20220;-73
2023/08/08 15:00:39;;;;;;;2.65;0.50;;;;;;;;;;20784642;28;20266;-73
2023/08/08 15:10:41;;;;;;;6.55;0.93;;;;;;;;;;20768288;28;20589;-74
2023/08/08 15:20:43;;;;;;;3.67;0.63;;;;;;;;;;20783996;28;20245;-73
2023/08/08 15:30:45;;;;;;;1.30;0.45;;;;;;;;;;20769305;28;20571;-74
2023/08/08 15:40:47;;;;;;;0.60;0.40;;;;;;;;;;20756674;28;20226;-73
2023/08/08 15:50:49;;;;;;;1.65;0.40;;;;;;;;;;20781162;28;20533;-71
2023/08/08 16:00:51;;;;;;;0.73;0.40;;;;;;;;;;20780589;28;20235;-72
2023/08/08 16:10:53;;;;;;;1.13;0.43;;;;;;;;;;20780232;28;20222;-74
2023/08/08 16:20:55;;;;;;;1.63;0.60;;;;;;;;;;20778613;28;20287;-72
2023/08/08 16:30:57;;;;;;;1.17;0.45;;;;;;;;;;20778363;28;20712;-72
2023/08/08 16:40:59;;;;;;;0.57;0.35;;;;;;;;;;20751697;28;20307;-72
2023/08/08 16:51:01;;;;;;;1.40;0.35;;;;;;;;;;20808248;28;20213;-72
2023/08/08 17:01:03;;;;;;;1.85;0.47;;;;;;;;;;20791485;28;20240;-75
2023/08/08 17:11:05;;;;;;;1.48;0.47;;;;;;;;;;20775229;28;20278;-72
2023/08/08 17:21:07;;;;;;;4.88;0.70;;;;;;;;;;20773956;28;20781;-72
2023/08/08 17:31:09;;;;;;;0.30;0.30;;;;;;;;;;20773719;28;20632;-74
2023/08/08 17:41:11;;;;;;;1.88;0.43;;;;;;;;;;20779573;28;20248;-73
2023/08/08 17:51:13;;;;;;;0.30;0.30;;;;;;;;;;20771789;28;20659;-74
2023/08/08 18:01:16;;;;;;;4.40;0.60;;;;;;;;;;20783917;28;20236;-74
2023/08/08 18:11:17;;;;;;;0.50;0.35;;;;;;;;;;20800100;28;20217;-74
2023/08/08 18:21:19;;;;;;;0.40;0.30;;;;;;;;;;20766773;28;20249;-75
2023/08/08 18:31:21;;;;;;;1.23;0.50;;;;;;;;;;20767102;28;20216;-75
2023/08/08 18:41:23;;;;;;;1.83;0.50;;;;;;;;;;20757349;28;20275;-74
2023/08/08 18:51:25;;;;;;;0.50;0.40;;;;;;;;;;20766494;28;20224;-74
2023/08/08 19:01:26;;;;;;;1.60;0.53;;;21.40;99.90;;;;;;20744426;28;1181990;-75
2023/08/08 19:11:29;;;;;;;0.60;0.40;;;;;;;;;;20811983;28;20227;-75
2023/08/08 19:21:30;;;;;;;2.17;0.63;;;;;;;;;;20783786;28;20224;-74
2023/08/08 19:31:32;;;;;;;2.53;0.50;;;;;;;;;;20784258;28;20228;-76
2023/08/08 19:41:34;;;;;;;1.00;0.43;;;;;;;;;;20806278;28;20576;-75
2023/08/08 19:51:36;;;;;;;0.33;0.33;;;;;;;;;;20781616;28;20220;-75
2023/08/08 20:01:38;;;;;;;0.90;0.57;;;;;;;;;;20856964;23;20289;-76
2023/08/08 20:11:41;;;;;;;1.00;0.40;;;;;;;;;;20860304;28;20229;-77
2023/08/08 20:21:43;;;;;;;0.60;0.30;;;;;;;;;;20843007;28;21033;-77
2023/08/08 20:31:45;;;;;;;1.63;0.47;;;;;;;;;;20819303;28;20224;-77
2023/08/08 20:41:47;;;;;;;1.03;0.40;;;;;;;;;;20815017;28;20288;-77
2023/08/08 20:51:49;;;;;;;1.20;0.67;;;;;;;;;;20830336;28;20758;-77
2023/08/08 21:01:51;;;;;;;0.70;0.40;;;;;;;;;;20856530;28;20296;-77
2023/08/08 21:11:52;;;;;;;2.07;0.57;;;;;;;;;;20855826;28;20242;-77
2023/08/08 21:21:55;;;;;;;2.57;0.60;;;;;;;;;;20854329;28;20230;-77
2023/08/08 21:31:56;;;;;;;1.03;0.53;;;;;;;;;;20840167;28;20340;-77
2023/08/08 21:41:58;;;;;;;0.60;0.40;;;;;;;;;;20844570;28;20266;-77
2023/08/08 21:52:00;;;;;;;1.53;0.70;;;;;;;;;;20836416;28;20266;-77
2023/08/08 22:02:02;;;;;;;1.13;0.50;;;;;;;;;;20851542;28;20294;-77
2023/08/08 22:12:04;;;;;;;0.90;0.40;;;20.60;99.90;;;;;;20883966;28;20704;-77
2023/08/08 22:22:07;;;;;;;1.13;0.50;;;;;;;;;;20834324;28;20224;-77
2023/08/08 22:32:08;;;;;;;2.50;0.53;;;;;;;;;;20852962;28;20531;-77
2023/08/08 22:42:10;;;;;;;0.47;0.30;;;;;;;;;;20828626;28;20229;-77
2023/08/08 22:52:12;;;;;;;1.00;0.40;;;;;;;;;;20882729;28;20270;-77
2023/08/08 23:02:14;;;;;;;0.87;0.50;;;;;;;;;;20849252;28;20228;-78
2023/08/08 23:12:16;;;;;;;0.40;0.40;;;20.40;99.90;;;;;;20872442;28;20243;-77
2023/08/08 23:22:18;;;;;;;1.47;0.63;;;;;;;;;;20888577;28;20235;-77
2023/08/08 23:32:20;;;;;;;0.80;0.50;;;;;;;;;;20853715;28;20262;-77
2023/08/08 23:42:22;;;;;;;0.40;0.40;;;;;;;;;;20843404;28;20291;-77
2023/08/08 23:52:24;;;;;;;0.93;0.50;;;;;;;;;;20810928;28;20278;-77
